createdAt,value
2023-03-02T00:04:39.362Z,102549.56
2023-03-02T00:09:45.255Z,102551.88
2023-03-02T00:14:49.724Z,102550.47
2023-03-02T00:19:52.785Z,102554.53
2023-03-02T00:24:55.804Z,102558.91
2023-03-02T00:30:00.383Z,102551.66
2023-03-02T00:35:06.547Z,102548.75
2023-03-02T00:40:11.528Z,102539.25
2023-03-02T00:45:15.793Z,102538.00
2023-03-02T00:50:18.921Z,102527.69
2023-03-02T00:55:21.917Z,102534.84
2023-03-02T01:00:28.422Z,102531.19
2023-03-02T01:05:37.915Z,102545.19
2023-03-02T01:10:41.385Z,102541.94
2023-03-02T01:15:45.874Z,102530.78
2023-03-02T01:20:48.875Z,102547.03
2023-03-02T01:25:52.188Z,102540.19
2023-03-02T01:30:56.588Z,102535.03
2023-03-02T01:35:59.694Z,102536.09
2023-03-02T01:41:04.809Z,102526.53
2023-03-02T01:46:14.688Z,102525.94
2023-03-02T01:51:25.109Z,102515.44
2023-03-02T01:56:34.734Z,102509.31
2023-03-02T02:01:42.681Z,102511.19
2023-03-02T02:06:49.929Z,102511.50
2023-03-02T02:11:53.494Z,102512.44
2023-03-02T02:16:58.136Z,102512.09
2023-03-02T02:22:01.422Z,102503.34
2023-03-02T02:27:05.912Z,102480.63
2023-03-02T02:32:16.452Z,102500.13
2023-03-02T02:37:27.276Z,102494.94
2023-03-02T02:42:36.163Z,102478.84
2023-03-02T02:47:39.756Z,102488.63
2023-03-02T02:52:43.327Z,102487.84
2023-03-02T02:57:48.620Z,102482.69
2023-03-02T03:02:57.438Z,102460.97
2023-03-02T03:08:11.677Z,102460.22
2023-03-02T03:13:16.904Z,102472.53
2023-03-02T03:18:24.160Z,102478.59
2023-03-02T03:23:28.032Z,102478.59
2023-03-02T03:28:32.679Z,102438.75
2023-03-02T03:33:36.154Z,102458.78
2023-03-02T03:38:39.419Z,102467.19
2023-03-02T03:43:43.981Z,102465.53
2023-03-02T03:48:47.555Z,102469.78
2023-03-02T03:54:00.006Z,102466.53
2023-03-02T03:59:11.357Z,102470.38
2023-03-02T04:04:22.372Z,102471.88
2023-03-02T04:09:26.705Z,102470.22
2023-03-02T04:14:32.026Z,102477.03
2023-03-02T04:19:37.436Z,102479.03
2023-03-02T04:24:41.170Z,102477.97
2023-03-02T04:29:46.427Z,102482.81
2023-03-02T04:34:50.151Z,102481.88
2023-03-02T04:39:53.504Z,102484.47
2023-03-02T04:44:57.824Z,102484.72
2023-03-02T04:50:01.292Z,102485.78
2023-03-02T04:55:05.353Z,102475.91
2023-03-02T05:00:12.909Z,102469.31
2023-03-02T05:05:18.102Z,102455.00
2023-03-02T05:10:22.548Z,102458.69
2023-03-02T05:15:29.888Z,102459.41
2023-03-02T05:20:32.933Z,102467.75
2023-03-02T05:25:38.275Z,102461.31
2023-03-02T05:30:42.724Z,102445.16
2023-03-02T05:35:45.941Z,102453.25
2023-03-02T05:40:49.480Z,102466.16
2023-03-02T05:45:56.028Z,102464.34
2023-03-02T05:50:59.796Z,102462.16
2023-03-02T05:56:04.529Z,102460.75
2023-03-02T06:01:15.137Z,102468.91
2023-03-02T06:06:18.839Z,102476.66
2023-03-02T06:11:21.860Z,102476.91
2023-03-02T06:16:26.249Z,102489.31
2023-03-02T06:21:31.826Z,102483.72
2023-03-02T06:26:35.058Z,102480.31
2023-03-02T06:31:39.958Z,102501.28
2023-03-02T06:36:46.083Z,102501.28
2023-03-02T06:41:50.381Z,102506.44
2023-03-02T06:46:54.922Z,102509.78
2023-03-02T06:51:58.064Z,102505.69
2023-03-02T06:57:01.259Z,102505.53
2023-03-02T07:02:08.420Z,102514.59
2023-03-02T07:07:11.409Z,102507.03
2023-03-02T07:12:15.022Z,102511.03
2023-03-02T07:17:21.072Z,102505.38
2023-03-02T07:22:24.311Z,102507.88
2023-03-02T07:27:27.345Z,102510.97
2023-03-02T07:32:31.799Z,102508.31
2023-03-02T07:37:35.147Z,102501.63
2023-03-02T07:42:38.623Z,102506.88
2023-03-02T07:47:44.153Z,102509.53
2023-03-02T07:52:47.178Z,102514.97
2023-03-02T07:57:50.378Z,102513.69
2023-03-02T08:02:54.800Z,102505.41
2023-03-02T08:07:57.798Z,102516.56
2023-03-02T08:13:00.873Z,102513.63
2023-03-02T08:18:05.912Z,102523.28
2023-03-02T08:23:08.904Z,102525.16
2023-03-02T08:28:12.302Z,102522.50
2023-03-02T08:33:16.972Z,102523.44
2023-03-02T08:38:20.012Z,102510.72
2023-03-02T08:43:25.197Z,102510.16
2023-03-02T08:48:30.202Z,102509.59
2023-03-02T08:53:36.425Z,102493.31
2023-03-02T08:58:39.627Z,102491.69
2023-03-02T09:03:44.104Z,102491.75
2023-03-02T09:08:47.246Z,102484.16
2023-03-02T09:13:50.343Z,102481.69
2023-03-02T09:18:58.366Z,102480.75
2023-03-02T09:24:01.537Z,102477.25
2023-03-02T09:29:08.288Z,102479.25
2023-03-02T09:34:12.719Z,102474.19
2023-03-02T09:39:15.678Z,102485.69
2023-03-02T09:44:41.892Z,102481.72
2023-03-02T09:49:59.197Z,102492.13
2023-03-02T09:55:12.519Z,102496.88
2023-03-02T10:00:21.754Z,102487.75
2023-03-02T10:05:30.495Z,102483.66
2023-03-02T10:10:41.701Z,102476.94
2023-03-02T10:15:53.730Z,102463.78
2023-03-02T10:21:03.708Z,102478.25
2023-03-02T10:26:20.633Z,102473.16
2023-03-02T10:31:28.356Z,102474.06
2023-03-02T10:36:39.046Z,102467.16
2023-03-02T10:41:49.619Z,102466.16
2023-03-02T10:46:53.998Z,102466.00
2023-03-02T10:52:00.555Z,102459.13
2023-03-02T10:57:14.726Z,102441.44
2023-03-02T11:02:23.520Z,102446.50
2023-03-02T11:07:29.749Z,102446.75
2023-03-02T11:12:34.330Z,102444.16
2023-03-02T11:17:40.182Z,102428.72
2023-03-02T11:22:53.203Z,102438.31
2023-03-02T11:28:02.039Z,102417.25
2023-03-02T11:33:13.561Z,102422.50
2023-03-02T11:38:22.717Z,102406.50
2023-03-02T11:43:25.811Z,102424.22
2023-03-02T11:48:38.276Z,102416.47
2023-03-02T11:53:47.449Z,102408.84
2023-03-02T11:58:57.005Z,102403.00
2023-03-02T12:04:08.543Z,102405.81
2023-03-02T12:09:33.276Z,102406.75
2023-03-02T12:14:40.147Z,102399.78
2023-03-02T12:19:46.886Z,102397.47
2023-03-02T12:25:04.933Z,102377.66
2023-03-02T12:30:26.215Z,102389.59
2023-03-02T12:35:32.005Z,102383.63
2023-03-02T12:40:59.196Z,102382.59
2023-03-02T12:46:27.496Z,102380.69
2023-03-02T12:51:33.879Z,102374.25
2023-03-02T12:56:38.415Z,102370.00
2023-03-02T13:01:41.486Z,102371.63
2023-03-02T13:06:44.744Z,102361.91
2023-03-02T13:11:54.907Z,102343.72
2023-03-02T13:16:59.801Z,102333.03
2023-03-02T13:22:10.406Z,102328.63
2023-03-02T13:27:19.952Z,102321.13
2023-03-02T13:32:26.062Z,102319.19
2023-03-02T13:37:39.209Z,102311.88
2023-03-02T13:42:44.021Z,102310.88
2023-03-02T13:47:47.061Z,102314.53
2023-03-02T13:52:51.050Z,102286.22
2023-03-02T13:57:56.672Z,102303.44
2023-03-02T14:03:00.152Z,102293.91
2023-03-02T14:08:06.043Z,102294.81
2023-03-02T14:13:15.994Z,102293.63
2023-03-02T14:18:29.339Z,102288.38
2023-03-02T14:23:32.640Z,102285.00
2023-03-02T14:28:37.224Z,102286.28
2023-03-02T14:33:40.398Z,102273.03
2023-03-02T14:38:44.053Z,102265.06
2023-03-02T14:43:48.901Z,102263.41
2023-03-02T14:48:51.892Z,102266.81
2023-03-02T14:53:58.708Z,102260.09
2023-03-02T14:59:06.530Z,102249.53
2023-03-02T15:04:09.571Z,102247.16
2023-03-02T15:09:12.868Z,102232.22
2023-03-02T15:14:19.174Z,102244.81
2023-03-02T15:19:22.185Z,102252.31
2023-03-02T15:24:26.504Z,102244.22
2023-03-02T15:29:31.280Z,102246.28
2023-03-02T15:34:36.585Z,102251.31
2023-03-02T15:39:39.960Z,102248.19
2023-03-02T15:44:44.753Z,102248.56
2023-03-02T15:49:47.765Z,102259.91
2023-03-02T15:54:51.115Z,102256.13
2023-03-02T15:59:55.528Z,102248.75
2023-03-02T16:04:58.478Z,102259.63
2023-03-02T16:10:01.788Z,102251.78
2023-03-02T16:15:10.419Z,102265.75
2023-03-02T16:20:16.482Z,102268.50
2023-03-02T16:25:20.105Z,102276.06
2023-03-02T16:30:25.123Z,102270.41
2023-03-02T16:35:29.514Z,102279.97
2023-03-02T16:40:38.896Z,102284.78
2023-03-02T16:45:43.335Z,102272.78
2023-03-02T16:50:46.407Z,102298.28
2023-03-02T16:55:50.226Z,102300.84
2023-03-02T17:00:55.154Z,102312.06
2023-03-02T17:05:58.832Z,102309.56
2023-03-02T17:11:03.835Z,102322.13
2023-03-02T17:16:08.652Z,102323.47
2023-03-02T17:21:11.707Z,102339.41
2023-03-02T17:26:14.942Z,102335.44
2023-03-02T17:31:19.421Z,102352.16
2023-03-02T17:36:24.722Z,102344.94
2023-03-02T17:41:28.051Z,102353.28
2023-03-02T17:46:36.133Z,102355.41
2023-03-02T17:51:39.506Z,102363.72
2023-03-02T17:56:42.570Z,102373.94
2023-03-02T18:01:46.992Z,102377.97
2023-03-02T18:06:52.397Z,102385.28
2023-03-02T18:11:57.057Z,102399.41
2023-03-02T18:17:03.812Z,102399.44
2023-03-02T18:22:06.810Z,102400.53
2023-03-02T18:27:09.722Z,102413.06
2023-03-02T18:32:18.553Z,102425.88
2023-03-02T18:37:21.638Z,102426.94
2023-03-02T18:42:25.034Z,102432.38
2023-03-02T18:47:30.351Z,102429.00
2023-03-02T18:52:35.149Z,102430.16
2023-03-02T18:57:38.933Z,102442.31
2023-03-02T19:02:43.619Z,102448.56
2023-03-02T19:07:47.200Z,102452.44
2023-03-02T19:12:50.653Z,102451.94
2023-03-02T19:17:55.162Z,102446.03
2023-03-02T19:22:58.127Z,102457.63
2023-03-02T19:28:01.271Z,102467.22
2023-03-02T19:33:09.948Z,102464.84
2023-03-02T19:38:13.408Z,102458.56
2023-03-02T19:43:16.579Z,102474.81
2023-03-02T19:48:21.450Z,102457.19
2023-03-02T19:53:24.465Z,102482.44
2023-03-02T19:58:28.564Z,102474.09
2023-03-02T20:03:37.727Z,102478.72
2023-03-02T20:08:41.074Z,102474.69
2023-03-02T20:13:44.206Z,102481.28
2023-03-02T20:18:50.583Z,102481.38
2023-03-02T20:23:54.436Z,102478.00
2023-03-02T20:28:58.754Z,102485.09
2023-03-02T20:34:05.248Z,102490.00
2023-03-02T20:39:11.278Z,102487.34
2023-03-02T20:44:14.951Z,102492.53
2023-03-02T20:49:20.127Z,102498.72
2023-03-02T20:54:24.969Z,102495.00
2023-03-02T20:59:29.277Z,102505.09
2023-03-02T21:04:36.150Z,102502.59
2023-03-02T21:09:40.214Z,102504.44
2023-03-02T21:14:46.120Z,102506.75
2023-03-02T21:19:50.675Z,102522.25
2023-03-02T21:24:53.976Z,102519.84
2023-03-02T21:29:57.110Z,102514.25
2023-03-02T21:35:02.828Z,102516.84
2023-03-02T21:40:07.153Z,102513.06
2023-03-02T21:45:11.721Z,102498.91
2023-03-02T21:50:18.986Z,102515.84
2023-03-02T21:55:22.194Z,102517.84
2023-03-02T22:00:29.735Z,102514.53
2023-03-02T22:05:35.251Z,102521.72
2023-03-02T22:10:41.912Z,102518.84
2023-03-02T22:15:46.275Z,102515.66
2023-03-02T22:20:52.798Z,102515.81
2023-03-02T22:26:16.237Z,102509.41
2023-03-02T22:31:21.798Z,102511.56
2023-03-02T22:36:26.386Z,102508.38
2023-03-02T22:41:29.364Z,102519.22
2023-03-02T22:46:35.574Z,102514.03
2023-03-02T22:51:40.084Z,102537.19
2023-03-02T22:56:47.400Z,102531.41
2023-03-02T23:01:50.612Z,102534.44
2023-03-02T23:06:56.813Z,102519.22
2023-03-02T23:12:05.258Z,102528.03
2023-03-02T23:17:14.738Z,102529.56
2023-03-02T23:22:19.999Z,102519.38
2023-03-02T23:27:24.485Z,102521.78
2023-03-02T23:32:27.572Z,102525.00
2023-03-02T23:37:32.542Z,102526.81
2023-03-02T23:42:35.721Z,102533.50
2023-03-02T23:47:38.669Z,102537.16
2023-03-02T23:52:43.030Z,102540.97
2023-03-02T23:57:46.108Z,102541.06
